CheckWX is a tool to help pilots better visualize weather data.  It is not intended as a substitute for an official pre-flight weather briefing.

11:54:49 UTC

KCID METAR
The Eastern Iowa Airport
Cedar Rapids, Iowa, USA
Current

1 hour ago

KCID 251052Z 04013KT 10SM FEW120 00/M04 A2994 RMK AO2 SLP145 T00001039
Observed
Feb-25 @ 10:52 UTC
Wind
  • 040° at 13 KTS
Visibility
10 SM
Flight Rules
VFR
Cloud Levels
  • Few at 12,000' AGL
Temperature
C / 32°F
Dewpoint
-4°C / 25°F
Humidity
75%
Altimeter
29.94" Hg
Pressure
1013.92 hPa
Previous

2 hours ago

KCID 250952Z AUTO 02011KT 10SM CLR 00/M04 A2992 RMK AO2 SLP138 T00001039
Observed
Feb-25 @ 09:52 UTC
Wind
  • 020° at 11 KTS
Visibility
10 SM
Flight Rules
VFR
Cloud Levels
  • Clear skies
Temperature
C / 32°F
Dewpoint
-4°C / 25°F
Humidity
75%
Altimeter
29.92" Hg
Pressure
1013.22 hPa
Previous

3 hours ago

KCID 250852Z AUTO 02011KT 10SM CLR 00/M04 A2991 RMK AO2 SLP136 T00001039 53006
Observed
Feb-25 @ 08:52 UTC
Wind
  • 020° at 11 KTS
Visibility
10 SM
Flight Rules
VFR
Cloud Levels
  • Clear skies
Temperature
C / 32°F
Dewpoint
-4°C / 25°F
Humidity
75%
Altimeter
29.91" Hg
Pressure
1012.92 hPa